createdAt,value
2018-09-25T00:00:16.623Z,6.29
2018-09-25T00:01:16.699Z,6.26
2018-09-25T00:02:16.960Z,6.24
2018-09-25T00:03:16.237Z,6.20
2018-09-25T00:04:16.506Z,6.17
2018-09-25T00:05:16.789Z,6.09
2018-09-25T00:06:17.059Z,6.05
2018-09-25T00:07:16.319Z,5.96
2018-09-25T00:08:16.584Z,5.95
2018-09-25T00:09:16.871Z,5.91
2018-09-25T00:10:17.212Z,5.84
2018-09-25T00:11:17.223Z,5.82
2018-09-25T00:12:16.498Z,5.79
2018-09-25T00:13:16.778Z,5.78
2018-09-25T00:14:17.059Z,5.78
2018-09-25T00:15:16.346Z,5.72
2018-09-25T00:16:16.634Z,5.74
2018-09-25T00:17:16.917Z,5.62
2018-09-25T00:18:17.186Z,5.65
2018-09-25T00:19:16.461Z,5.81
2018-09-25T00:20:16.733Z,5.75
2018-09-25T00:21:16.788Z,5.82
2018-09-25T00:22:17.064Z,5.74
2018-09-25T00:23:16.327Z,5.71
2018-09-25T00:24:16.597Z,5.64
2018-09-25T00:25:16.886Z,5.65
2018-09-25T00:26:17.160Z,5.64
2018-09-25T00:27:16.435Z,5.61
2018-09-25T00:28:16.998Z,5.55
2018-09-25T00:29:16.268Z,5.55
2018-09-25T00:30:16.557Z,5.58
2018-09-25T00:31:16.600Z,5.51
2018-09-25T00:32:16.901Z,5.45
2018-09-25T00:33:17.174Z,5.44
2018-09-25T00:34:16.449Z,5.41
2018-09-25T00:35:16.730Z,5.40
2018-09-25T00:36:17.006Z,5.38
2018-09-25T00:37:16.272Z,5.35
2018-09-25T00:38:16.549Z,5.34
2018-09-25T00:39:16.845Z,5.28
2018-09-25T00:40:17.125Z,5.26
2018-09-25T00:41:17.173Z,5.17
2018-09-25T00:42:16.456Z,5.19
2018-09-25T00:43:16.720Z,5.16
2018-09-25T00:44:16.992Z,5.12
2018-09-25T00:45:16.270Z,5.09
2018-09-25T00:46:16.546Z,5.06
2018-09-25T00:47:16.816Z,5.00
2018-09-25T00:48:17.090Z,4.96
2018-09-25T00:49:16.366Z,4.91
2018-09-25T00:50:16.643Z,4.86
2018-09-25T00:51:16.689Z,4.86
2018-09-25T00:52:16.963Z,4.75
2018-09-25T00:53:16.231Z,4.75
2018-09-25T00:54:16.847Z,4.68
2018-09-25T00:55:17.110Z,4.64
2018-09-25T00:56:16.382Z,4.65
2018-09-25T00:57:16.657Z,4.57
2018-09-25T00:58:16.930Z,4.54
2018-09-25T00:59:17.211Z,4.50
2018-09-25T01:00:16.492Z,4.50
2018-09-25T01:01:16.548Z,4.51
2018-09-25T01:02:16.822Z,4.50
2018-09-25T01:03:17.090Z,4.50
2018-09-25T01:04:16.355Z,4.48
2018-09-25T01:05:16.653Z,4.47
2018-09-25T01:06:16.922Z,4.46
2018-09-25T01:07:17.192Z,4.44
2018-09-25T01:08:16.463Z,4.41
2018-09-25T01:09:16.733Z,4.38
2018-09-25T01:10:17.013Z,4.36
2018-09-25T01:11:17.039Z,4.37
2018-09-25T01:12:16.305Z,4.34
2018-09-25T01:13:16.581Z,4.33
2018-09-25T01:14:16.844Z,4.31
2018-09-25T01:15:17.113Z,4.31
2018-09-25T01:16:16.394Z,4.30
2018-09-25T01:17:16.677Z,4.30
2018-09-25T01:18:16.954Z,4.24
2018-09-25T01:19:16.315Z,4.28
2018-09-25T01:20:16.849Z,4.27
2018-09-25T01:21:16.885Z,4.28
2018-09-25T01:22:17.163Z,4.28
2018-09-25T01:23:16.424Z,4.31
2018-09-25T01:24:16.695Z,4.31
2018-09-25T01:25:16.971Z,4.30
2018-09-25T01:26:16.890Z,4.30
2018-09-25T01:27:17.161Z,4.28
2018-09-25T01:28:16.429Z,4.28
2018-09-25T01:29:16.697Z,4.31
2018-09-25T01:30:16.978Z,4.30
2018-09-25T01:31:17.028Z,4.28
2018-09-25T01:32:16.291Z,4.28
2018-09-25T01:33:16.556Z,4.27
2018-09-25T01:34:16.820Z,4.28
2018-09-25T01:35:17.097Z,4.36
2018-09-25T01:36:16.365Z,4.38
2018-09-25T01:37:16.631Z,4.38
2018-09-25T01:38:16.896Z,4.44
2018-09-25T01:39:17.162Z,4.38
2018-09-25T01:40:16.448Z,4.36
2018-09-25T01:41:16.504Z,4.33
2018-09-25T01:42:16.788Z,4.36
2018-09-25T01:43:17.061Z,4.28
2018-09-25T01:44:16.333Z,4.31
2018-09-25T01:45:16.605Z,4.36
2018-09-25T01:46:16.875Z,4.33
2018-09-25T01:47:17.162Z,4.33
2018-09-25T01:48:16.435Z,4.28
2018-09-25T01:49:16.702Z,4.28
2018-09-25T01:50:17.016Z,4.26
2018-09-25T01:51:17.026Z,4.27
2018-09-25T01:52:16.289Z,4.23
2018-09-25T01:53:16.572Z,4.21
2018-09-25T01:54:16.836Z,4.19
2018-09-25T01:55:17.123Z,4.19
2018-09-25T01:56:16.395Z,4.16
2018-09-25T01:57:16.668Z,4.14
2018-09-25T01:58:16.942Z,4.13
2018-09-25T01:59:16.206Z,4.10
2018-09-25T02:00:16.496Z,4.06
2018-09-25T02:01:16.534Z,4.09
2018-09-25T02:02:16.805Z,4.08
2018-09-25T02:03:17.067Z,4.05
2018-09-25T02:04:16.353Z,4.06
2018-09-25T02:05:16.640Z,4.03
2018-09-25T02:06:16.912Z,4.00
2018-09-25T02:07:17.195Z,3.99
2018-09-25T02:08:16.496Z,3.99
2018-09-25T02:09:16.771Z,4.02
2018-09-25T02:10:17.060Z,3.99
2018-09-25T02:11:17.100Z,3.98
2018-09-25T02:12:16.374Z,3.95
2018-09-25T02:13:16.642Z,3.95
2018-09-25T02:14:16.912Z,3.93
2018-09-25T02:15:17.185Z,3.92
2018-09-25T02:16:16.457Z,3.90
2018-09-25T02:17:16.736Z,3.90
2018-09-25T02:18:17.005Z,3.82
2018-09-25T02:19:16.279Z,3.74
2018-09-25T02:20:16.577Z,3.72
2018-09-25T02:21:16.602Z,3.69
2018-09-25T02:22:16.866Z,3.69
2018-09-25T02:23:17.139Z,3.69
2018-09-25T02:24:16.400Z,3.68
2018-09-25T02:25:16.667Z,3.68
2018-09-25T02:26:16.948Z,3.68
2018-09-25T02:27:16.226Z,3.77
2018-09-25T02:28:16.506Z,3.72
2018-09-25T02:29:16.792Z,3.78
2018-09-25T02:30:17.101Z,3.74
2018-09-25T02:31:17.128Z,3.77
2018-09-25T02:32:16.402Z,3.78
2018-09-25T02:33:16.690Z,3.75
2018-09-25T02:34:16.953Z,3.75
2018-09-25T02:35:16.217Z,3.64
2018-09-25T02:36:16.480Z,3.62
2018-09-25T02:37:16.739Z,3.60
2018-09-25T02:38:17.027Z,3.54
2018-09-25T02:39:16.300Z,3.53
2018-09-25T02:40:16.578Z,3.50
2018-09-25T02:41:16.628Z,3.46
2018-09-25T02:42:16.891Z,3.44
2018-09-25T02:43:17.180Z,3.46
2018-09-25T02:44:16.454Z,3.46
2018-09-25T02:45:16.738Z,3.41
2018-09-25T02:46:17.022Z,3.41
2018-09-25T02:47:16.294Z,3.40
2018-09-25T02:48:16.566Z,3.39
2018-09-25T02:49:16.839Z,3.39
2018-09-25T02:50:17.130Z,3.34
2018-09-25T02:51:17.161Z,3.36
2018-09-25T02:52:16.435Z,3.31
2018-09-25T02:53:16.693Z,3.33
2018-09-25T02:54:16.958Z,3.31
2018-09-25T02:55:16.225Z,3.31
2018-09-25T02:56:16.496Z,3.30
2018-09-25T02:57:16.769Z,3.30
2018-09-25T02:58:17.045Z,3.30
2018-09-25T02:59:16.318Z,3.30
2018-09-25T03:00:16.589Z,3.26
2018-09-25T03:01:16.640Z,3.26
2018-09-25T03:02:16.926Z,3.17
2018-09-25T03:03:17.211Z,3.17
2018-09-25T03:04:16.494Z,2.99
2018-09-25T03:05:16.771Z,2.95
2018-09-25T03:06:17.049Z,2.92
2018-09-25T03:07:16.319Z,2.88
2018-09-25T03:08:16.590Z,2.88
2018-09-25T03:09:16.862Z,2.84
2018-09-25T03:10:17.143Z,2.84
2018-09-25T03:11:16.209Z,2.81
2018-09-25T03:12:16.488Z,2.82
2018-09-25T03:13:16.764Z,2.82
2018-09-25T03:14:17.027Z,2.72
2018-09-25T03:15:16.372Z,2.69
2018-09-25T03:16:16.646Z,2.64
2018-09-25T03:17:16.916Z,2.60
2018-09-25T03:18:16.219Z,2.57
2018-09-25T03:19:16.504Z,2.51
2018-09-25T03:20:16.970Z,2.50
2018-09-25T03:21:17.035Z,2.55
2018-09-25T03:22:16.321Z,2.55
2018-09-25T03:23:16.586Z,2.53
2018-09-25T03:24:16.869Z,2.51
2018-09-25T03:25:17.142Z,2.50
2018-09-25T03:26:16.414Z,2.53
2018-09-25T03:27:16.696Z,2.54
2018-09-25T03:28:16.273Z,2.54
2018-09-25T03:29:16.552Z,2.53
2018-09-25T03:30:16.845Z,2.54
2018-09-25T03:31:16.878Z,2.51
2018-09-25T03:32:17.150Z,2.48
2018-09-25T03:33:16.430Z,2.47
2018-09-25T03:34:16.706Z,2.47
2018-09-25T03:35:16.978Z,2.44
2018-09-25T03:36:16.257Z,2.43
2018-09-25T03:37:16.536Z,2.43
2018-09-25T03:38:16.806Z,2.44
2018-09-25T03:39:17.068Z,2.40
2018-09-25T03:40:16.344Z,2.43
2018-09-25T03:41:16.371Z,2.44
2018-09-25T03:42:16.639Z,2.36
2018-09-25T03:43:16.904Z,2.36
2018-09-25T03:44:17.180Z,2.41
2018-09-25T03:45:16.462Z,2.41
2018-09-25T03:46:16.754Z,2.40
2018-09-25T03:47:17.048Z,2.40
2018-09-25T03:48:16.318Z,2.40
2018-09-25T03:49:16.592Z,2.36
2018-09-25T03:50:16.868Z,2.33
2018-09-25T03:51:16.925Z,2.33
2018-09-25T03:52:17.193Z,2.32
2018-09-25T03:53:16.464Z,2.33
2018-09-25T03:54:16.753Z,2.32
2018-09-25T03:55:17.033Z,2.36
2018-09-25T03:56:16.317Z,2.34
2018-09-25T03:57:16.587Z,2.34
2018-09-25T03:58:16.861Z,2.33
2018-09-25T03:59:17.122Z,2.34
2018-09-25T04:00:16.427Z,2.34
2018-09-25T04:01:16.476Z,2.33
2018-09-25T04:02:16.753Z,2.33
2018-09-25T04:03:17.021Z,2.32
2018-09-25T04:04:16.303Z,2.29
2018-09-25T04:05:16.574Z,2.29
2018-09-25T04:06:16.881Z,2.27
2018-09-25T04:07:16.530Z,2.29
2018-09-25T04:08:16.802Z,2.27
2018-09-25T04:09:17.074Z,2.30
2018-09-25T04:10:16.349Z,2.30
2018-09-25T04:11:16.391Z,2.29
2018-09-25T04:12:16.661Z,2.30
2018-09-25T04:13:16.943Z,2.30
2018-09-25T04:14:16.214Z,2.29
2018-09-25T04:15:16.502Z,2.27
2018-09-25T04:16:16.789Z,2.26
2018-09-25T04:17:17.050Z,2.24
2018-09-25T04:18:16.332Z,2.23
2018-09-25T04:19:16.595Z,2.23
2018-09-25T04:20:16.865Z,2.21
2018-09-25T04:21:16.912Z,2.21
2018-09-25T04:22:17.181Z,2.19
2018-09-25T04:23:16.462Z,2.21
2018-09-25T04:24:16.744Z,2.23
2018-09-25T04:25:17.015Z,2.21
2018-09-25T04:26:16.285Z,2.19
2018-09-25T04:27:16.559Z,2.20
2018-09-25T04:28:16.894Z,2.20
2018-09-25T04:29:16.221Z,2.19
2018-09-25T04:30:16.501Z,2.19
2018-09-25T04:31:16.583Z,2.16
2018-09-25T04:32:16.871Z,2.19
2018-09-25T04:33:17.164Z,2.17
2018-09-25T04:34:16.734Z,2.13
2018-09-25T04:35:17.023Z,2.12
2018-09-25T04:36:16.293Z,2.07
2018-09-25T04:37:16.634Z,2.07
2018-09-25T04:38:17.020Z,2.07
2018-09-25T04:39:16.290Z,2.10
2018-09-25T04:40:16.568Z,2.00
2018-09-25T04:41:16.622Z,1.89
2018-09-25T04:42:16.897Z,1.86
2018-09-25T04:43:17.163Z,1.71
2018-09-25T04:44:16.439Z,1.68
2018-09-25T04:45:16.708Z,1.65
2018-09-25T04:46:16.976Z,1.62
2018-09-25T04:47:16.256Z,1.64
2018-09-25T04:48:16.523Z,1.61
2018-09-25T04:49:16.787Z,1.58
2018-09-25T04:50:17.078Z,1.53
2018-09-25T04:51:17.112Z,1.50
2018-09-25T04:52:16.382Z,1.46
2018-09-25T04:53:16.641Z,1.48
2018-09-25T04:54:16.918Z,1.46
2018-09-25T04:55:17.207Z,1.53
2018-09-25T04:56:16.486Z,1.54
2018-09-25T04:57:16.770Z,1.51
2018-09-25T04:58:17.040Z,1.51
2018-09-25T04:59:16.315Z,1.46
2018-09-25T05:00:16.593Z,1.46
2018-09-25T05:01:16.631Z,1.34
2018-09-25T05:02:16.908Z,1.37
2018-09-25T05:03:17.188Z,1.36
2018-09-25T05:04:16.458Z,1.37
2018-09-25T05:05:16.719Z,1.41
2018-09-25T05:06:16.984Z,1.43
2018-09-25T05:07:16.528Z,1.39
2018-09-25T05:08:16.795Z,1.40
2018-09-25T05:09:17.063Z,1.41
2018-09-25T05:10:16.366Z,1.40
2018-09-25T05:11:16.403Z,1.40
2018-09-25T05:12:16.732Z,1.47
2018-09-25T05:13:16.233Z,1.44
2018-09-25T05:14:16.512Z,1.44
2018-09-25T05:15:16.784Z,1.44
2018-09-25T05:16:17.055Z,1.51
2018-09-25T05:17:16.326Z,1.51
2018-09-25T05:18:16.637Z,1.48
2018-09-25T05:19:17.181Z,1.53
2018-09-25T05:20:16.458Z,1.58
2018-09-25T05:21:16.515Z,1.58
2018-09-25T05:22:16.797Z,1.57
2018-09-25T05:23:17.122Z,1.58
2018-09-25T05:24:16.439Z,1.55
2018-09-25T05:25:16.715Z,1.54
2018-09-25T05:26:16.985Z,1.55
2018-09-25T05:27:16.250Z,1.51
2018-09-25T05:28:16.529Z,1.50
2018-09-25T05:29:16.799Z,1.53
2018-09-25T05:30:17.086Z,1.54
2018-09-25T05:31:17.145Z,1.51
2018-09-25T05:32:16.414Z,1.48
2018-09-25T05:33:16.681Z,1.48
2018-09-25T05:34:16.953Z,1.50
2018-09-25T05:35:16.257Z,1.48
2018-09-25T05:36:16.561Z,1.48
2018-09-25T05:37:16.827Z,1.51
2018-09-25T05:38:17.103Z,1.53
2018-09-25T05:39:16.370Z,1.64
2018-09-25T05:40:16.644Z,1.75
2018-09-25T05:41:16.686Z,1.78
2018-09-25T05:42:16.967Z,1.81
2018-09-25T05:43:16.247Z,1.89
2018-09-25T05:44:16.513Z,1.89
2018-09-25T05:45:16.781Z,1.90
2018-09-25T05:46:17.049Z,1.92
2018-09-25T05:47:16.322Z,1.92
2018-09-25T05:48:16.624Z,1.93
2018-09-25T05:49:17.100Z,1.88
2018-09-25T05:50:16.378Z,1.86
2018-09-25T05:51:16.410Z,1.86
2018-09-25T05:52:16.679Z,1.88
2018-09-25T05:53:16.945Z,1.92
2018-09-25T05:54:16.213Z,1.90
2018-09-25T05:55:16.485Z,1.92
2018-09-25T05:56:16.759Z,1.92
2018-09-25T05:57:17.035Z,1.89
2018-09-25T05:58:16.303Z,1.90
2018-09-25T05:59:16.573Z,1.92
2018-09-25T06:00:16.864Z,1.93
2018-09-25T06:01:16.903Z,1.92
2018-09-25T06:02:17.459Z,1.95
2018-09-25T06:03:16.721Z,1.93
2018-09-25T06:04:16.290Z,1.95
2018-09-25T06:05:16.564Z,1.93
2018-09-25T06:06:16.835Z,1.96
2018-09-25T06:07:17.097Z,1.96
2018-09-25T06:08:16.366Z,2.00
2018-09-25T06:09:16.691Z,2.06
2018-09-25T06:10:17.072Z,2.09
2018-09-25T06:11:17.108Z,2.05
2018-09-25T06:12:16.380Z,2.07
2018-09-25T06:13:16.656Z,2.07
2018-09-25T06:14:16.922Z,2.09
2018-09-25T06:15:17.203Z,2.10
2018-09-25T06:16:16.484Z,2.14
2018-09-25T06:17:16.757Z,2.17
2018-09-25T06:18:17.024Z,2.24
2018-09-25T06:19:16.418Z,2.26
2018-09-25T06:20:16.703Z,2.27
2018-09-25T06:21:16.731Z,2.33
2018-09-25T06:22:16.998Z,2.36
2018-09-25T06:23:16.269Z,2.43
2018-09-25T06:24:16.557Z,2.47
2018-09-25T06:25:16.823Z,2.48
2018-09-25T06:26:17.091Z,2.51
2018-09-25T06:27:16.353Z,2.55
2018-09-25T06:28:16.621Z,2.60
2018-09-25T06:29:16.886Z,2.63
2018-09-25T06:30:17.160Z,2.71
2018-09-25T06:31:16.231Z,2.74
2018-09-25T06:32:16.516Z,2.79
2018-09-25T06:33:16.782Z,2.86
2018-09-25T06:34:17.060Z,2.92
2018-09-25T06:35:16.337Z,2.95
2018-09-25T06:36:16.613Z,2.95
2018-09-25T06:37:16.932Z,2.98
2018-09-25T06:38:16.279Z,2.98
2018-09-25T06:39:16.557Z,3.02
2018-09-25T06:40:16.841Z,3.10
2018-09-25T06:41:16.899Z,3.10
2018-09-25T06:42:17.164Z,3.17
2018-09-25T06:43:16.444Z,3.23
2018-09-25T06:44:16.717Z,3.24
2018-09-25T06:45:16.985Z,3.39
2018-09-25T06:46:16.308Z,3.55
2018-09-25T06:47:16.636Z,3.65
2018-09-25T06:48:17.414Z,3.68
2018-09-25T06:49:16.687Z,3.89
2018-09-25T06:50:16.980Z,3.92
2018-09-25T06:51:17.010Z,4.05
2018-09-25T06:52:16.285Z,4.03
2018-09-25T06:53:16.555Z,4.05
2018-09-25T06:54:16.824Z,4.31
2018-09-25T06:55:17.118Z,4.41
2018-09-25T06:56:16.595Z,4.36
2018-09-25T06:57:16.871Z,4.40
2018-09-25T06:58:17.164Z,4.51
2018-09-25T06:59:16.429Z,4.60
2018-09-25T07:00:16.716Z,4.67
2018-09-25T07:01:16.759Z,4.71
2018-09-25T07:02:17.039Z,4.75
2018-09-25T07:03:16.312Z,4.85
2018-09-25T07:04:17.042Z,4.89
2018-09-25T07:05:16.319Z,4.86
2018-09-25T07:06:16.609Z,4.98
2018-09-25T07:07:16.886Z,5.03
2018-09-25T07:08:17.148Z,4.93
2018-09-25T07:09:16.432Z,5.10
2018-09-25T07:10:16.748Z,5.33
2018-09-25T07:11:16.771Z,5.71
2018-09-25T07:12:17.056Z,5.48
2018-09-25T07:13:16.317Z,5.44
2018-09-25T07:14:16.594Z,5.37
2018-09-25T07:15:16.865Z,5.85
2018-09-25T07:16:17.134Z,6.02
2018-09-25T07:17:16.407Z,5.89
2018-09-25T07:18:16.674Z,5.82
2018-09-25T07:19:16.940Z,5.77
2018-09-25T07:20:16.224Z,5.81
2018-09-25T07:21:16.250Z,6.06
2018-09-25T07:22:16.528Z,6.21
2018-09-25T07:23:16.797Z,6.24
2018-09-25T07:24:17.077Z,6.38
2018-09-25T07:25:16.348Z,6.47
2018-09-25T07:26:16.617Z,6.40
2018-09-25T07:27:16.882Z,6.27
2018-09-25T07:28:17.157Z,6.26
2018-09-25T07:29:16.418Z,6.29
2018-09-25T07:30:16.685Z,6.37
2018-09-25T07:31:16.748Z,6.61
2018-09-25T07:32:17.022Z,6.55
2018-09-25T07:33:16.291Z,6.69
2018-09-25T07:34:16.561Z,6.71
2018-09-25T07:35:16.825Z,6.65
2018-09-25T07:36:17.099Z,6.75
2018-09-25T07:37:16.366Z,6.74
2018-09-25T07:38:16.629Z,6.79
2018-09-25T07:39:16.897Z,6.82
2018-09-25T07:40:17.169Z,6.91
2018-09-25T07:41:16.614Z,7.09
2018-09-25T07:42:16.883Z,7.02
2018-09-25T07:43:17.153Z,7.02
2018-09-25T07:44:16.419Z,7.15
2018-09-25T07:45:16.695Z,7.15
2018-09-25T07:46:16.957Z,7.16
2018-09-25T07:47:16.234Z,7.12
2018-09-25T07:48:16.614Z,7.12
2018-09-25T07:49:16.907Z,7.12
2018-09-25T07:50:17.192Z,7.16
2018-09-25T07:51:16.244Z,7.17
2018-09-25T07:52:16.534Z,7.20
2018-09-25T07:53:16.812Z,7.24
2018-09-25T07:54:17.088Z,7.23
2018-09-25T07:55:16.378Z,7.24
2018-09-25T07:56:16.654Z,7.40
2018-09-25T07:57:16.937Z,7.38
2018-09-25T07:58:16.211Z,7.54
2018-09-25T07:59:16.497Z,7.59
2018-09-25T08:00:16.823Z,7.66
2018-09-25T08:01:16.870Z,7.57
2018-09-25T08:02:17.140Z,7.55
2018-09-25T08:03:16.479Z,7.51
2018-09-25T08:04:16.988Z,7.61
2018-09-25T08:05:16.255Z,7.54
2018-09-25T08:06:16.533Z,7.61
2018-09-25T08:07:16.805Z,7.66
2018-09-25T08:08:17.079Z,7.74
2018-09-25T08:09:16.353Z,7.75
2018-09-25T08:10:16.641Z,7.80
2018-09-25T08:11:16.677Z,7.85
2018-09-25T08:12:16.962Z,7.91
2018-09-25T08:13:16.240Z,7.98
2018-09-25T08:14:16.516Z,8.02
2018-09-25T08:15:16.821Z,8.00
2018-09-25T08:16:17.148Z,8.00
2018-09-25T08:17:16.451Z,7.95
2018-09-25T08:18:16.715Z,7.99
2018-09-25T08:19:16.984Z,7.93
2018-09-25T08:20:16.260Z,8.13
2018-09-25T08:21:16.308Z,8.13
2018-09-25T08:22:16.645Z,8.10
2018-09-25T08:23:16.961Z,8.17
2018-09-25T08:24:16.234Z,8.20
2018-09-25T08:25:16.523Z,8.36
2018-09-25T08:26:16.803Z,8.43
2018-09-25T08:27:17.093Z,8.33
2018-09-25T08:28:16.361Z,8.36
2018-09-25T08:29:16.633Z,8.48
2018-09-25T08:30:16.917Z,8.43
2018-09-25T08:31:16.972Z,8.48
2018-09-25T08:32:16.236Z,8.50
2018-09-25T08:33:16.504Z,8.47
2018-09-25T08:34:16.779Z,8.52
2018-09-25T08:35:17.060Z,8.50
2018-09-25T08:36:16.333Z,8.47
2018-09-25T08:37:16.609Z,8.55
2018-09-25T08:38:16.882Z,8.62
2018-09-25T08:39:17.328Z,8.67
2018-09-25T08:40:16.878Z,8.64
2018-09-25T08:41:16.918Z,8.67
2018-09-25T08:42:17.196Z,8.67
2018-09-25T08:43:16.462Z,8.68
2018-09-25T08:44:16.728Z,8.62
2018-09-25T08:45:17.013Z,8.74
2018-09-25T08:46:16.278Z,8.75
2018-09-25T08:47:16.543Z,8.75
2018-09-25T08:48:16.807Z,8.68
2018-09-25T08:49:17.075Z,8.69
2018-09-25T08:50:16.351Z,8.62
2018-09-25T08:51:16.394Z,8.80
2018-09-25T08:52:16.662Z,8.88
2018-09-25T08:53:16.940Z,8.98
2018-09-25T08:54:16.211Z,9.00
2018-09-25T08:55:16.477Z,8.99
2018-09-25T08:56:16.741Z,9.00
2018-09-25T08:57:17.014Z,9.02
2018-09-25T08:58:16.286Z,9.03
2018-09-25T08:59:16.558Z,9.15
2018-09-25T09:00:16.844Z,9.23
2018-09-25T09:01:16.884Z,9.36
2018-09-25T09:02:17.158Z,9.54
2018-09-25T09:03:16.437Z,9.51
2018-09-25T09:04:16.710Z,9.54
2018-09-25T09:05:16.981Z,9.54
2018-09-25T09:06:16.254Z,9.65
2018-09-25T09:07:16.538Z,9.69
2018-09-25T09:08:16.859Z,9.68
2018-09-25T09:09:16.240Z,9.62
2018-09-25T09:10:16.525Z,9.64
2018-09-25T09:11:16.564Z,9.68
2018-09-25T09:12:16.834Z,9.65
2018-09-25T09:13:17.108Z,9.74
2018-09-25T09:14:16.380Z,9.91
2018-09-25T09:15:16.707Z,10.01
2018-09-25T09:16:16.968Z,9.93
2018-09-25T09:17:16.236Z,10.19
2018-09-25T09:18:16.520Z,10.40
2018-09-25T09:19:16.805Z,10.19
2018-09-25T09:20:17.159Z,10.05
2018-09-25T09:21:17.128Z,10.17
2018-09-25T09:22:16.406Z,10.23
2018-09-25T09:23:16.685Z,10.47
2018-09-25T09:24:16.952Z,10.47
2018-09-25T09:25:16.270Z,10.57
2018-09-25T09:26:16.802Z,10.70
2018-09-25T09:27:17.070Z,10.75
2018-09-25T09:28:16.355Z,10.68
2018-09-25T09:29:16.633Z,10.52
2018-09-25T09:30:16.912Z,10.57
2018-09-25T09:31:16.939Z,10.65
2018-09-25T09:32:17.204Z,10.41
2018-09-25T09:33:16.473Z,10.40
2018-09-25T09:34:16.753Z,10.58
2018-09-25T09:35:17.025Z,10.40
2018-09-25T09:36:16.290Z,10.23
2018-09-25T09:37:16.557Z,10.40
2018-09-25T09:38:16.826Z,10.26
2018-09-25T09:39:17.097Z,10.10
2018-09-25T09:40:16.391Z,10.14
2018-09-25T09:41:16.558Z,10.23
2018-09-25T09:42:17.052Z,10.29
2018-09-25T09:43:16.316Z,10.29
2018-09-25T09:44:16.603Z,10.44
2018-09-25T09:45:16.870Z,10.56
2018-09-25T09:46:17.142Z,10.45
2018-09-25T09:47:16.405Z,10.29
2018-09-25T09:48:16.677Z,10.40
2018-09-25T09:49:16.947Z,10.31
2018-09-25T09:50:16.267Z,10.36
2018-09-25T09:51:16.257Z,10.51
2018-09-25T09:52:16.539Z,10.61
2018-09-25T09:53:16.814Z,10.41
2018-09-25T09:54:17.089Z,10.41
2018-09-25T09:55:16.368Z,10.57
2018-09-25T09:56:16.650Z,10.52
2018-09-25T09:57:17.086Z,10.48
2018-09-25T09:58:16.358Z,10.67
2018-09-25T09:59:16.620Z,10.50
2018-09-25T10:00:16.904Z,10.54
2018-09-25T10:01:16.972Z,10.64
2018-09-25T10:02:16.245Z,10.68
2018-09-25T10:03:16.517Z,10.68
2018-09-25T10:04:16.783Z,10.64
2018-09-25T10:05:17.066Z,10.47
2018-09-25T10:06:16.338Z,10.51
2018-09-25T10:07:16.629Z,10.60
2018-09-25T10:08:17.063Z,10.60
2018-09-25T10:09:16.332Z,10.63
2018-09-25T10:10:16.603Z,10.60
2018-09-25T10:11:16.643Z,10.65
2018-09-25T10:12:16.946Z,10.44
2018-09-25T10:13:16.266Z,10.45
2018-09-25T10:14:16.527Z,10.82
2018-09-25T10:15:16.820Z,11.02
2018-09-25T10:16:17.096Z,11.13
2018-09-25T10:17:16.372Z,10.99
2018-09-25T10:18:16.640Z,10.95
2018-09-25T10:19:16.915Z,11.16
2018-09-25T10:20:17.197Z,11.12
2018-09-25T10:21:16.223Z,11.26
2018-09-25T10:22:16.496Z,11.30
2018-09-25T10:23:16.761Z,11.31
2018-09-25T10:24:17.030Z,11.53
2018-09-25T10:25:16.290Z,11.58
2018-09-25T10:26:16.559Z,11.63
2018-09-25T10:27:16.856Z,11.57
2018-09-25T10:28:16.286Z,11.60
2018-09-25T10:29:16.551Z,11.63
2018-09-25T10:30:16.836Z,11.49
2018-09-25T10:31:16.878Z,11.26
2018-09-25T10:32:17.146Z,11.20
2018-09-25T10:33:16.427Z,11.29
2018-09-25T10:34:16.821Z,11.02
2018-09-25T10:35:16.266Z,11.10
2018-09-25T10:36:16.543Z,11.15
2018-09-25T10:37:16.816Z,11.27
2018-09-25T10:38:17.082Z,11.39
2018-09-25T10:39:16.349Z,11.43
2018-09-25T10:40:16.639Z,11.61
2018-09-25T10:41:16.701Z,11.80
2018-09-25T10:42:16.976Z,11.86
2018-09-25T10:43:16.238Z,11.53
2018-09-25T10:44:16.509Z,11.31
2018-09-25T10:45:16.799Z,11.02
2018-09-25T10:46:17.091Z,10.85
2018-09-25T10:47:16.364Z,10.87
2018-09-25T10:48:16.624Z,11.00
2018-09-25T10:49:16.889Z,10.95
2018-09-25T10:50:17.277Z,11.02
2018-09-25T10:51:16.234Z,11.02
2018-09-25T10:52:16.578Z,10.98
2018-09-25T10:53:16.845Z,10.89
2018-09-25T10:54:17.125Z,10.81
2018-09-25T10:55:16.405Z,10.85
2018-09-25T10:56:16.882Z,10.79
2018-09-25T10:57:16.608Z,10.82
2018-09-25T10:58:16.880Z,11.00
2018-09-25T10:59:17.149Z,10.95
2018-09-25T11:00:16.427Z,10.94
2018-09-25T11:01:16.468Z,11.20
2018-09-25T11:02:16.751Z,11.44
2018-09-25T11:03:17.248Z,11.61
2018-09-25T11:04:17.122Z,11.43
2018-09-25T11:05:16.403Z,11.57
2018-09-25T11:06:16.669Z,11.81
2018-09-25T11:07:16.951Z,11.64
2018-09-25T11:08:16.222Z,11.46
2018-09-25T11:09:16.494Z,11.64
2018-09-25T11:10:16.785Z,11.80
2018-09-25T11:11:16.803Z,11.68
2018-09-25T11:12:17.073Z,11.80
2018-09-25T11:13:16.349Z,12.15
2018-09-25T11:14:16.615Z,11.89
2018-09-25T11:15:16.888Z,11.89
2018-09-25T11:16:17.162Z,11.99
2018-09-25T11:17:16.430Z,12.02
2018-09-25T11:18:16.710Z,12.12
2018-09-25T11:19:16.988Z,12.32
2018-09-25T11:20:16.267Z,12.53
2018-09-25T11:21:16.331Z,12.54
2018-09-25T11:22:16.609Z,12.60
2018-09-25T11:23:16.881Z,12.44
2018-09-25T11:24:17.153Z,11.99
2018-09-25T11:25:16.438Z,12.12
2018-09-25T11:26:16.718Z,11.91
2018-09-25T11:27:16.990Z,11.72
2018-09-25T11:28:16.260Z,11.71
2018-09-25T11:29:16.524Z,11.78
2018-09-25T11:30:16.809Z,11.86
2018-09-25T11:31:16.843Z,12.01
2018-09-25T11:32:17.126Z,12.03
2018-09-25T11:33:16.402Z,11.67
2018-09-25T11:34:16.681Z,11.61
2018-09-25T11:35:17.001Z,11.84
2018-09-25T11:36:16.306Z,11.82
2018-09-25T11:37:16.582Z,11.78
2018-09-25T11:38:16.859Z,11.72
2018-09-25T11:39:17.134Z,11.70
2018-09-25T11:40:16.404Z,11.72
2018-09-25T11:41:16.495Z,11.57
2018-09-25T11:42:16.848Z,11.51
2018-09-25T11:43:17.122Z,11.58
2018-09-25T11:44:16.383Z,11.70
2018-09-25T11:45:16.669Z,11.67
2018-09-25T11:46:16.940Z,11.72
2018-09-25T11:47:16.273Z,11.67
2018-09-25T11:48:16.562Z,11.65
2018-09-25T11:49:16.831Z,11.68
2018-09-25T11:50:17.119Z,11.40
2018-09-25T11:51:17.181Z,11.46
2018-09-25T11:52:16.451Z,11.49
2018-09-25T11:53:16.726Z,11.91
2018-09-25T11:54:17.006Z,11.98
2018-09-25T11:55:16.286Z,11.96
2018-09-25T11:56:16.567Z,11.98
2018-09-25T11:57:16.875Z,12.06
2018-09-25T11:58:17.145Z,12.16
2018-09-25T11:59:16.416Z,12.22
2018-09-25T12:00:16.693Z,12.22
2018-09-25T12:01:16.748Z,12.44
2018-09-25T12:02:17.139Z,12.51
2018-09-25T12:03:16.575Z,12.56
2018-09-25T12:04:16.849Z,12.53
2018-09-25T12:05:17.124Z,12.53
2018-09-25T12:06:16.405Z,12.44
2018-09-25T12:07:16.689Z,12.39
2018-09-25T12:08:16.965Z,12.35
2018-09-25T12:09:16.241Z,12.43
2018-09-25T12:10:16.529Z,12.46
2018-09-25T12:11:16.588Z,12.39
2018-09-25T12:12:16.857Z,12.41
2018-09-25T12:13:17.130Z,12.58
2018-09-25T12:14:16.397Z,12.49
2018-09-25T12:15:16.676Z,12.47
2018-09-25T12:16:16.947Z,12.64
2018-09-25T12:17:16.222Z,12.60
2018-09-25T12:18:16.485Z,12.54
2018-09-25T12:19:16.759Z,12.35
2018-09-25T12:20:17.025Z,12.32
2018-09-25T12:21:17.066Z,12.47
2018-09-25T12:22:16.334Z,12.29
2018-09-25T12:23:16.648Z,12.39
2018-09-25T12:24:16.977Z,12.08
2018-09-25T12:25:16.265Z,11.89
2018-09-25T12:26:16.532Z,11.75
2018-09-25T12:27:16.810Z,11.81
2018-09-25T12:28:17.086Z,11.93
2018-09-25T12:29:16.349Z,11.89
2018-09-25T12:30:16.658Z,11.77
2018-09-25T12:31:16.695Z,11.77
2018-09-25T12:32:16.964Z,11.98
2018-09-25T12:33:16.234Z,12.03
2018-09-25T12:34:16.509Z,12.40
2018-09-25T12:35:16.772Z,12.47
2018-09-25T12:36:17.042Z,12.29
2018-09-25T12:37:16.301Z,11.74
2018-09-25T12:38:16.583Z,12.18
2018-09-25T12:39:16.852Z,12.18
2018-09-25T12:40:17.128Z,12.41
2018-09-25T12:41:17.165Z,12.44
2018-09-25T12:42:16.448Z,12.63
2018-09-25T12:43:16.722Z,12.72
2018-09-25T12:44:16.992Z,12.84
2018-09-25T12:45:16.255Z,12.72
2018-09-25T12:46:16.538Z,12.66
2018-09-25T12:47:16.798Z,12.85
2018-09-25T12:48:17.076Z,12.66
2018-09-25T12:49:16.345Z,12.58
2018-09-25T12:50:16.628Z,12.61
2018-09-25T12:51:16.653Z,12.70
2018-09-25T12:52:16.918Z,12.57
2018-09-25T12:53:17.200Z,12.64
2018-09-25T12:54:16.462Z,12.88
2018-09-25T12:55:16.741Z,12.92
2018-09-25T12:56:17.021Z,13.01
2018-09-25T12:57:16.297Z,13.22
2018-09-25T12:58:16.570Z,12.77
2018-09-25T12:59:16.847Z,12.63
2018-09-25T13:00:17.123Z,12.40
2018-09-25T13:01:17.157Z,12.53
2018-09-25T13:02:16.537Z,12.57
2018-09-25T13:03:16.806Z,12.64
2018-09-25T13:04:17.110Z,12.67
2018-09-25T13:05:16.377Z,12.53
2018-09-25T13:06:16.650Z,12.63
2018-09-25T13:07:16.922Z,12.63
2018-09-25T13:08:17.188Z,12.58
2018-09-25T13:09:16.451Z,12.60
2018-09-25T13:10:16.736Z,12.68